createdAt,value
2022-11-24T00:01:07.953Z,15.60
2022-11-24T00:03:35.076Z,15.70
2022-11-24T00:06:07.163Z,15.70
2022-11-24T00:08:34.977Z,15.60
2022-11-24T00:11:13.136Z,15.60
2022-11-24T00:13:40.136Z,15.60
2022-11-24T00:16:08.444Z,15.60
2022-11-24T00:18:35.186Z,15.60
2022-11-24T00:21:01.842Z,15.60
2022-11-24T00:23:28.424Z,15.60
2022-11-24T00:25:54.996Z,15.60
2022-11-24T00:28:21.597Z,15.60
2022-11-24T00:30:48.262Z,15.60
2022-11-24T00:33:14.856Z,15.60
2022-11-24T00:35:41.486Z,15.60
2022-11-24T00:38:08.042Z,15.60
2022-11-24T00:40:35.168Z,15.60
2022-11-24T00:43:02.003Z,15.60
2022-11-24T00:45:28.590Z,15.50
2022-11-24T00:47:55.128Z,15.60
2022-11-24T00:50:21.682Z,15.60
2022-11-24T00:57:45.308Z,15.60
2022-11-24T01:00:13.859Z,15.50
2022-11-24T01:02:40.485Z,15.50
2022-11-24T01:05:07.696Z,15.60
2022-11-24T01:07:34.362Z,15.50
2022-11-24T01:10:01.029Z,15.50
2022-11-24T01:12:27.693Z,15.50
2022-11-24T01:14:54.283Z,15.50
2022-11-24T01:17:20.905Z,15.50
2022-11-24T01:19:49.058Z,15.50
2022-11-24T01:22:15.765Z,15.50
2022-11-24T01:27:09.486Z,15.50
2022-11-24T01:29:36.114Z,15.50
2022-11-24T01:32:02.764Z,15.50
2022-11-24T01:34:29.379Z,15.50
2022-11-24T01:36:55.933Z,15.50
2022-11-24T01:39:22.501Z,15.50
2022-11-24T01:41:49.082Z,15.50
2022-11-24T01:44:27.836Z,15.50
2022-11-24T01:47:21.574Z,15.50
2022-11-24T01:49:55.601Z,15.50
2022-11-24T01:52:33.930Z,15.50
2022-11-24T01:55:05.968Z,15.50
2022-11-24T01:57:45.695Z,15.50
2022-11-24T02:00:14.087Z,15.50
2022-11-24T02:02:43.059Z,15.50
2022-11-24T02:05:18.769Z,15.50
2022-11-24T02:07:46.435Z,15.50
2022-11-24T02:10:16.287Z,15.50
2022-11-24T02:12:46.752Z,15.50
2022-11-24T02:15:15.906Z,15.50
2022-11-24T02:17:42.531Z,15.40
2022-11-24T02:20:10.594Z,15.50
2022-11-24T02:22:49.127Z,15.40
2022-11-24T02:25:35.845Z,15.40
2022-11-24T02:28:07.414Z,15.40
2022-11-24T02:30:35.089Z,15.50
2022-11-24T02:33:02.381Z,15.40
2022-11-24T02:35:29.128Z,15.50
2022-11-24T02:37:55.826Z,15.40
2022-11-24T02:40:25.557Z,15.50
2022-11-24T02:42:55.040Z,15.40
2022-11-24T02:45:22.891Z,15.40
2022-11-24T02:47:49.443Z,15.40
2022-11-24T02:50:16.214Z,15.70
2022-11-24T02:55:09.764Z,15.00
2022-11-24T02:57:36.432Z,15.40
2022-11-24T03:00:04.040Z,15.40
2022-11-24T03:02:30.705Z,15.40
2022-11-24T03:04:57.328Z,15.40
2022-11-24T03:07:24.011Z,15.40
2022-11-24T03:09:50.672Z,15.40
2022-11-24T03:12:17.276Z,15.40
2022-11-24T03:14:43.862Z,15.40
2022-11-24T03:17:10.461Z,15.40
2022-11-24T03:19:37.015Z,15.20
2022-11-24T03:22:03.650Z,15.40
2022-11-24T03:24:30.217Z,15.40
2022-11-24T03:26:56.763Z,15.40
2022-11-24T03:29:23.367Z,15.40
2022-11-24T03:31:50.005Z,15.40
2022-11-24T03:34:16.589Z,15.40
2022-11-24T03:36:43.163Z,15.40
2022-11-24T03:39:09.905Z,15.30
2022-11-24T03:41:38.721Z,15.40
2022-11-24T03:46:32.493Z,15.40
2022-11-24T03:48:59.178Z,15.30
2022-11-24T03:51:25.808Z,18.00
2022-11-24T03:53:52.339Z,15.40
2022-11-24T03:56:18.914Z,15.40
2022-11-24T03:58:45.444Z,15.30
2022-11-24T04:01:12.056Z,15.30
2022-11-24T04:06:05.690Z,15.30
2022-11-24T04:08:32.230Z,15.30
2022-11-24T04:10:59.173Z,15.40
2022-11-24T04:13:25.980Z,15.40
2022-11-24T04:15:53.053Z,15.30
2022-11-24T04:18:20.574Z,15.30
2022-11-24T04:20:50.794Z,15.40
2022-11-24T04:23:18.070Z,15.30
2022-11-24T04:25:44.643Z,15.30
2022-11-24T04:28:11.291Z,15.30
2022-11-24T04:30:38.537Z,15.30
2022-11-24T04:33:05.107Z,15.30
2022-11-24T04:35:31.640Z,15.30
2022-11-24T04:38:02.427Z,15.30
2022-11-24T04:40:29.251Z,15.30
2022-11-24T04:42:56.235Z,15.30
2022-11-24T04:45:23.745Z,15.30
2022-11-24T04:47:50.489Z,15.40
2022-11-24T04:50:17.603Z,15.30
2022-11-24T04:52:44.252Z,15.40
2022-11-24T04:55:11.060Z,15.40
2022-11-24T04:57:37.864Z,15.40
2022-11-24T05:00:05.020Z,15.40
2022-11-24T05:02:31.566Z,15.50
2022-11-24T05:04:58.125Z,15.50
2022-11-24T05:07:24.774Z,15.50
2022-11-24T05:10:10.118Z,15.50
2022-11-24T05:12:36.673Z,15.50
2022-11-24T05:15:04.792Z,15.50
2022-11-24T05:17:33.570Z,15.50
2022-11-24T05:20:00.472Z,15.50
2022-11-24T05:22:29.343Z,15.50
2022-11-24T05:24:55.970Z,15.60
2022-11-24T05:27:22.780Z,15.60
2022-11-24T05:29:49.492Z,15.50
2022-11-24T05:32:16.427Z,15.50
2022-11-24T05:34:43.189Z,15.50
2022-11-24T05:37:09.812Z,15.50
2022-11-24T05:39:37.117Z,15.50
2022-11-24T05:42:25.892Z,15.60
2022-11-24T05:44:53.293Z,15.60
2022-11-24T05:49:47.271Z,15.70
2022-11-24T05:52:14.045Z,15.70
2022-11-24T05:54:40.634Z,15.60
2022-11-24T05:57:07.223Z,15.70
2022-11-24T05:59:33.818Z,15.70
2022-11-24T06:02:00.956Z,15.70
2022-11-24T06:04:27.635Z,15.70
2022-11-24T06:06:54.199Z,15.80
2022-11-24T06:09:20.874Z,15.70
2022-11-24T06:11:48.486Z,15.80
2022-11-24T06:14:15.125Z,15.90
2022-11-24T06:16:41.758Z,15.90
2022-11-24T06:19:10.266Z,15.90
2022-11-24T06:21:37.344Z,15.90
2022-11-24T06:24:04.593Z,16.00
2022-11-24T06:26:31.580Z,16.00
2022-11-24T06:28:58.170Z,16.10
2022-11-24T06:31:24.773Z,16.10
2022-11-24T06:33:51.430Z,16.10
2022-11-24T06:36:17.988Z,16.20
2022-11-24T06:38:44.621Z,16.10
2022-11-24T06:41:16.269Z,16.10
2022-11-24T06:43:43.014Z,16.10
2022-11-24T06:48:37.748Z,16.10
2022-11-24T06:51:07.581Z,16.10
2022-11-24T06:53:37.796Z,16.10
2022-11-24T06:56:15.792Z,16.10
2022-11-24T06:58:48.446Z,16.10
2022-11-24T07:01:20.674Z,16.10
2022-11-24T07:03:48.191Z,15.80
2022-11-24T07:06:15.508Z,15.70
2022-11-24T07:08:42.251Z,15.90
2022-11-24T07:11:12.081Z,15.90
2022-11-24T07:13:38.651Z,16.00
2022-11-24T07:16:15.724Z,16.00
2022-11-24T07:18:44.384Z,16.00
2022-11-24T07:21:11.001Z,16.00
2022-11-24T07:23:38.254Z,16.00
2022-11-24T07:26:07.117Z,15.90
2022-11-24T07:28:36.818Z,16.00
2022-11-24T07:31:18.900Z,16.00
2022-11-24T07:33:53.489Z,15.90
2022-11-24T07:36:20.923Z,15.90
2022-11-24T07:38:47.918Z,15.90
2022-11-24T07:41:15.805Z,15.90
2022-11-24T07:43:42.515Z,15.90
2022-11-24T07:46:12.229Z,15.90
2022-11-24T07:48:39.021Z,15.90
2022-11-24T07:51:06.585Z,15.90
2022-11-24T07:53:33.892Z,15.80
2022-11-24T07:56:02.399Z,15.80
2022-11-24T07:58:32.624Z,15.80
2022-11-24T08:01:00.694Z,15.90
2022-11-24T08:03:27.416Z,15.80
2022-11-24T08:08:46.574Z,15.70
2022-11-24T08:11:17.915Z,15.80
2022-11-24T08:13:44.950Z,15.80
2022-11-24T08:16:14.789Z,15.80
2022-11-24T08:18:41.825Z,15.80
2022-11-24T08:21:13.061Z,15.80
2022-11-24T08:23:39.766Z,15.80
2022-11-24T08:26:09.206Z,15.80
2022-11-24T08:31:09.118Z,15.80
2022-11-24T08:36:08.312Z,15.80
2022-11-24T08:41:03.670Z,15.80
2022-11-24T08:43:30.365Z,15.80
2022-11-24T08:46:01.114Z,15.80
2022-11-24T08:48:28.495Z,15.80
2022-11-24T08:50:55.342Z,16.00
2022-11-24T08:55:49.126Z,15.80
2022-11-24T08:58:16.475Z,16.10
2022-11-24T09:00:43.510Z,15.60
2022-11-24T09:03:11.781Z,16.10
2022-11-24T09:05:53.956Z,15.80
2022-11-24T09:08:20.651Z,15.80
2022-11-24T09:10:47.294Z,15.70
2022-11-24T09:13:14.044Z,15.90
2022-11-24T09:15:40.645Z,16.10
2022-11-24T09:20:34.305Z,15.90
2022-11-24T09:23:00.901Z,16.00
2022-11-24T09:25:27.445Z,15.80
2022-11-24T09:27:54.701Z,15.90
2022-11-24T09:30:21.363Z,15.90
2022-11-24T09:32:48.031Z,15.00
2022-11-24T09:35:14.731Z,14.50
2022-11-24T09:37:43.260Z,14.20
2022-11-24T09:40:14.127Z,14.50
2022-11-24T09:43:08.250Z,14.80
2022-11-24T09:46:04.641Z,15.20
2022-11-24T09:48:36.116Z,15.30
2022-11-24T09:51:04.230Z,15.40
2022-11-24T09:53:32.756Z,15.40
2022-11-24T09:56:04.685Z,15.50
2022-11-24T09:58:48.152Z,15.60
2022-11-24T10:01:42.267Z,15.60
2022-11-24T10:04:16.892Z,15.60
2022-11-24T10:09:46.673Z,15.80
2022-11-24T10:12:35.201Z,15.90
2022-11-24T10:15:25.317Z,15.90
2022-11-24T10:18:17.036Z,16.20
2022-11-24T10:20:58.707Z,15.70
2022-11-24T10:23:43.693Z,15.90
2022-11-24T10:26:38.476Z,16.00
2022-11-24T10:29:34.350Z,15.90
2022-11-24T10:32:06.029Z,16.00
2022-11-24T10:37:11.176Z,16.40
2022-11-24T10:39:50.484Z,15.80
2022-11-24T10:42:40.047Z,15.90
2022-11-24T10:47:33.582Z,16.00
2022-11-24T10:50:10.801Z,16.20
2022-11-24T10:52:41.435Z,16.20
2022-11-24T10:55:08.200Z,16.20
2022-11-24T10:57:36.804Z,16.30
2022-11-24T11:00:32.704Z,16.40
2022-11-24T11:03:21.480Z,16.50
2022-11-24T11:05:52.558Z,16.60
2022-11-24T11:08:23.772Z,16.60
2022-11-24T11:11:11.591Z,16.60
2022-11-24T11:16:23.544Z,16.70
2022-11-24T11:21:36.202Z,16.70
2022-11-24T11:24:13.513Z,16.80
2022-11-24T11:34:53.213Z,16.90
2022-11-24T11:37:21.539Z,16.90
2022-11-24T11:39:50.471Z,16.90
2022-11-24T11:43:01.395Z,16.90
2022-11-24T11:45:27.824Z,16.80
2022-11-24T11:48:02.709Z,16.80
2022-11-24T11:54:03.871Z,16.80
2022-11-24T11:56:43.362Z,16.80
2022-11-24T11:59:25.868Z,16.70
2022-11-24T12:02:17.414Z,16.70
2022-11-24T12:04:59.311Z,16.70
2022-11-24T12:07:49.913Z,16.60
2022-11-24T12:10:34.883Z,16.60
2022-11-24T12:13:31.271Z,16.70
2022-11-24T12:16:06.367Z,16.60
2022-11-24T12:18:57.731Z,16.60
2022-11-24T12:21:33.515Z,16.70
2022-11-24T12:24:04.547Z,16.70
2022-11-24T12:26:37.728Z,16.70
2022-11-24T12:29:37.118Z,16.70
2022-11-24T12:32:19.710Z,16.50
2022-11-24T12:35:06.960Z,16.70
2022-11-24T12:37:52.610Z,16.70
2022-11-24T12:40:22.016Z,16.70
2022-11-24T12:43:12.835Z,16.70
2022-11-24T12:46:03.637Z,16.70
2022-11-24T12:49:11.959Z,16.70
2022-11-24T12:51:42.685Z,16.70
2022-11-24T12:54:14.521Z,16.70
2022-11-24T12:56:50.324Z,16.70
2022-11-24T12:59:47.844Z,16.80
2022-11-24T13:02:29.975Z,16.80
2022-11-24T13:05:20.288Z,16.80
2022-11-24T13:08:01.530Z,16.80
2022-11-24T13:10:54.628Z,16.80
2022-11-24T13:13:23.249Z,16.80
2022-11-24T13:16:07.084Z,16.80
2022-11-24T13:19:08.196Z,16.80
2022-11-24T13:22:06.616Z,16.80
2022-11-24T13:24:38.730Z,16.80
2022-11-24T13:27:19.592Z,16.80
2022-11-24T13:29:50.758Z,16.90
2022-11-24T13:32:23.046Z,17.00
2022-11-24T13:34:54.565Z,16.90
2022-11-24T13:37:31.328Z,16.40
2022-11-24T13:40:13.998Z,16.80
2022-11-24T13:43:02.409Z,16.80
2022-11-24T13:45:41.529Z,16.90
2022-11-24T13:48:20.634Z,16.80
2022-11-24T13:50:50.654Z,16.80
2022-11-24T13:53:43.992Z,16.80
2022-11-24T13:56:13.594Z,16.70
2022-11-24T13:58:48.425Z,16.60
2022-11-24T14:01:27.055Z,17.00
2022-11-24T14:04:32.303Z,16.90
2022-11-24T14:07:08.367Z,16.60
2022-11-24T14:09:50.026Z,16.70
2022-11-24T14:12:20.488Z,16.70
2022-11-24T14:14:49.844Z,16.80
2022-11-24T14:17:28.143Z,16.90
2022-11-24T14:19:56.442Z,17.00
2022-11-24T14:22:23.012Z,17.00
2022-11-24T14:24:55.431Z,17.10
2022-11-24T14:27:31.034Z,17.20
2022-11-24T14:30:46.435Z,17.10
2022-11-24T14:33:13.371Z,17.10
2022-11-24T14:35:45.837Z,17.10
2022-11-24T14:38:13.206Z,17.10
2022-11-24T14:40:51.183Z,17.20
2022-11-24T14:43:28.473Z,16.90
2022-11-24T14:46:01.129Z,15.90
2022-11-24T14:48:31.276Z,15.10
2022-11-24T14:51:30.499Z,14.90
2022-11-24T14:54:01.101Z,15.30
2022-11-24T14:56:32.561Z,15.70
2022-11-24T14:58:59.283Z,15.70
2022-11-24T15:01:32.670Z,16.20
2022-11-24T15:07:20.189Z,16.20
2022-11-24T15:10:04.076Z,16.40
2022-11-24T15:12:39.329Z,16.40
2022-11-24T15:15:14.908Z,16.40
2022-11-24T15:17:53.541Z,16.50
2022-11-24T15:20:42.195Z,16.50
2022-11-24T15:23:27.948Z,16.50
2022-11-24T15:25:56.406Z,16.50
2022-11-24T15:28:27.023Z,16.50
2022-11-24T15:30:55.002Z,16.50
2022-11-24T15:33:23.027Z,16.50
2022-11-24T15:35:49.936Z,16.50
2022-11-24T15:38:17.082Z,16.60
2022-11-24T15:40:46.011Z,16.60
2022-11-24T15:43:33.551Z,16.60
2022-11-24T15:46:01.336Z,16.60
2022-11-24T15:48:28.903Z,16.60
2022-11-24T15:50:57.375Z,16.60
2022-11-24T15:53:31.510Z,16.60
2022-11-24T15:55:59.963Z,16.60
2022-11-24T16:06:16.741Z,16.50
2022-11-24T16:08:46.024Z,16.40
2022-11-24T16:13:39.975Z,16.50
2022-11-24T16:16:06.940Z,16.50
2022-11-24T16:18:35.274Z,16.50
2022-11-24T16:28:23.784Z,16.60
2022-11-24T16:30:53.739Z,16.50
2022-11-24T16:33:20.344Z,16.60
2022-11-24T16:35:48.175Z,16.60
2022-11-24T16:38:18.986Z,16.60
2022-11-24T16:40:51.287Z,16.70
2022-11-24T16:43:17.942Z,16.70
2022-11-24T16:45:45.639Z,16.70
2022-11-24T16:48:12.538Z,16.60
2022-11-24T16:50:39.072Z,16.70
2022-11-24T16:55:32.639Z,16.70
2022-11-24T16:57:59.251Z,16.70
2022-11-24T17:00:25.818Z,16.70
2022-11-24T17:02:52.350Z,16.60
2022-11-24T17:05:18.953Z,16.70
2022-11-24T17:07:45.575Z,16.70
2022-11-24T17:10:12.175Z,15.80
2022-11-24T17:12:40.716Z,16.10
2022-11-24T17:15:31.880Z,16.10
2022-11-24T17:18:22.809Z,16.40
2022-11-24T17:20:43.856Z,16.40
2022-11-24T17:23:10.395Z,16.40
2022-11-24T17:25:36.929Z,16.40
2022-11-24T17:28:03.556Z,16.40
2022-11-24T17:30:30.089Z,16.40
2022-11-24T17:32:57.169Z,16.40
2022-11-24T17:35:23.722Z,16.40
2022-11-24T17:37:50.245Z,16.50
2022-11-24T17:40:34.307Z,16.50
2022-11-24T17:43:01.371Z,16.50
2022-11-24T17:45:28.859Z,16.50
2022-11-24T17:47:56.365Z,16.50
2022-11-24T17:50:25.939Z,16.60
2022-11-24T17:52:53.164Z,16.60
2022-11-24T17:55:19.732Z,16.60
2022-11-24T18:00:14.087Z,16.60
2022-11-24T18:02:40.673Z,16.60
2022-11-24T18:05:07.636Z,16.60
2022-11-24T18:07:36.593Z,16.60
2022-11-24T18:10:03.671Z,16.60
2022-11-24T18:12:30.257Z,16.60
2022-11-24T18:14:56.875Z,16.50
2022-11-24T18:17:23.487Z,16.60
2022-11-24T18:19:50.003Z,16.60
2022-11-24T18:22:16.601Z,16.50
2022-11-24T18:24:43.122Z,16.50
2022-11-24T18:27:09.706Z,16.50
2022-11-24T18:29:36.228Z,16.50
2022-11-24T18:32:02.814Z,16.50
2022-11-24T18:34:29.435Z,16.50
2022-11-24T18:36:56.021Z,16.50
2022-11-24T18:39:22.589Z,16.50
2022-11-24T18:41:49.170Z,16.50
2022-11-24T18:46:42.775Z,16.50
2022-11-24T18:49:09.362Z,16.50
2022-11-24T18:51:36.046Z,16.50
2022-11-24T18:54:04.638Z,16.40
2022-11-24T18:56:31.417Z,16.40
2022-11-24T18:58:58.134Z,16.40
2022-11-24T19:01:27.591Z,16.50
2022-11-24T19:03:57.198Z,16.40
2022-11-24T19:06:33.390Z,16.50
2022-11-24T19:09:10.861Z,16.40
2022-11-24T19:11:39.773Z,16.40
2022-11-24T19:14:08.206Z,16.50
2022-11-24T19:16:35.527Z,16.50
2022-11-24T19:19:02.854Z,16.40
2022-11-24T19:21:34.661Z,16.40
2022-11-24T19:24:05.437Z,16.40
2022-11-24T19:26:34.676Z,16.40
2022-11-24T19:29:01.373Z,16.40
2022-11-24T19:31:28.056Z,16.40
2022-11-24T19:33:55.251Z,16.40
2022-11-24T19:36:23.005Z,16.40
2022-11-24T19:38:51.705Z,16.40
2022-11-24T19:41:20.336Z,16.40
2022-11-24T19:43:47.899Z,16.50
2022-11-24T19:46:17.234Z,16.50
2022-11-24T19:48:46.020Z,16.40
2022-11-24T19:51:24.140Z,16.40
2022-11-24T19:53:51.033Z,16.40
2022-11-24T19:56:20.534Z,16.40
2022-11-24T19:58:48.251Z,16.40
2022-11-24T20:01:20.622Z,16.40
2022-11-24T20:03:51.669Z,16.40
2022-11-24T20:06:18.232Z,16.40
2022-11-24T20:08:44.978Z,16.40
2022-11-24T20:11:16.640Z,16.40
2022-11-24T20:13:45.443Z,16.40
2022-11-24T20:16:14.558Z,16.40
2022-11-24T20:18:46.112Z,16.40
2022-11-24T20:21:18.520Z,16.40
2022-11-24T20:23:47.331Z,16.40
2022-11-24T20:26:19.339Z,16.40
2022-11-24T20:28:47.162Z,16.40
2022-11-24T20:31:16.774Z,16.40
2022-11-24T20:33:43.764Z,16.40
2022-11-24T20:36:12.755Z,16.40
2022-11-24T20:38:40.750Z,16.40
2022-11-24T20:41:13.439Z,16.40
2022-11-24T20:43:40.866Z,16.40
2022-11-24T20:46:25.300Z,16.40
2022-11-24T20:48:53.081Z,16.60
2022-11-24T20:51:28.230Z,16.50
2022-11-24T20:53:58.544Z,16.40
2022-11-24T20:56:28.342Z,15.70
2022-11-24T21:03:57.872Z,14.50
2022-11-24T21:06:25.819Z,15.00
2022-11-24T21:08:52.683Z,15.40
2022-11-24T21:11:20.245Z,15.70
2022-11-24T21:13:48.697Z,15.80
2022-11-24T21:16:18.167Z,15.60
2022-11-24T21:18:46.852Z,15.90
2022-11-24T21:21:14.487Z,16.10
2022-11-24T21:23:41.115Z,16.20
2022-11-24T21:26:13.084Z,16.20
2022-11-24T21:28:42.766Z,16.30
2022-11-24T21:31:17.624Z,16.30
2022-11-24T21:33:46.614Z,16.30
2022-11-24T21:36:15.569Z,16.40
2022-11-24T21:38:42.826Z,16.40
2022-11-24T21:41:10.717Z,16.40
2022-11-24T21:43:37.790Z,16.50
2022-11-24T21:46:07.184Z,16.40
2022-11-24T21:48:35.713Z,16.50
2022-11-24T21:51:04.349Z,16.40
2022-11-24T21:53:32.868Z,16.40
2022-11-24T21:56:05.556Z,16.40
2022-11-24T21:58:33.367Z,16.40
2022-11-24T22:01:10.426Z,16.30
2022-11-24T22:03:37.618Z,16.30
2022-11-24T22:06:04.697Z,16.30
2022-11-24T22:08:31.727Z,16.30
2022-11-24T22:11:05.084Z,16.30
2022-11-24T22:13:31.976Z,16.30
2022-11-24T22:16:09.651Z,16.30
2022-11-24T22:18:38.433Z,16.30
2022-11-24T22:21:07.112Z,16.30
2022-11-24T22:23:35.251Z,16.30
2022-11-24T22:26:06.872Z,16.30
2022-11-24T22:28:35.266Z,16.30
2022-11-24T22:31:10.637Z,16.30
2022-11-24T22:33:37.426Z,16.20
2022-11-24T22:36:04.293Z,16.30
2022-11-24T22:38:31.829Z,16.20
2022-11-24T22:41:12.445Z,16.30
2022-11-24T22:43:40.502Z,16.20
2022-11-24T22:46:12.909Z,16.20
2022-11-24T22:48:40.435Z,16.20
2022-11-24T22:51:10.663Z,16.20
2022-11-24T22:53:38.220Z,16.20
2022-11-24T22:56:07.968Z,16.20
2022-11-24T22:58:34.522Z,16.20
2022-11-24T23:01:09.113Z,16.20
2022-11-24T23:03:36.097Z,16.20
2022-11-24T23:06:04.656Z,16.20
2022-11-24T23:08:34.084Z,16.20
2022-11-24T23:11:02.390Z,16.20
2022-11-24T23:13:29.405Z,16.20
2022-11-24T23:16:06.602Z,16.10
2022-11-24T23:18:34.384Z,16.20
2022-11-24T23:21:10.336Z,16.20
2022-11-24T23:23:36.923Z,16.10
2022-11-24T23:26:06.583Z,16.10
2022-11-24T23:28:33.522Z,16.20
2022-11-24T23:31:04.937Z,16.10
2022-11-24T23:33:32.044Z,16.10
2022-11-24T23:36:05.294Z,16.10
2022-11-24T23:38:34.875Z,16.10
2022-11-24T23:41:06.716Z,16.10
2022-11-24T23:43:34.768Z,16.10
2022-11-24T23:46:06.282Z,16.10
2022-11-24T23:48:33.840Z,16.10
2022-11-24T23:51:27.875Z,16.10
2022-11-24T23:53:55.226Z,16.10
2022-11-24T23:56:24.841Z,16.10
2022-11-24T23:58:51.724Z,16.10
